Richardson, TX (75080)

12:49 PM CST on February 09, 2016 (GMT -0600)
Northwest Richardson | | Change Station
CLOSE
Current Station
Personal Weather Station
Location: Richardson, TX
Elevation: 625 ft
Nearby Weather Stations
Active Advisory: Flood Warning

Elev 625 ft 32.96 °N, 96.75 °W | Updated 9 minutes ago

Clear
Clear
59.2 °F
Feels Like 59.2 °F
N
6.0
Wind Variable Wind from WNW
Gusts 18.5 mph

Today
High -- | Low -- °F
--% Chance of Precip.
Yesterday
High -- | Low -- °F
Precip. -- in
Pressure 30.29 in
Visibility 13.0 miles
Clouds Clear
Dew Point 7 °F
Humidity 12%
Rainfall 0.00 in
Snow Depth Not available.
7:16 AM 6:06 PM
New Moon, 2% visible
METAR KADS 091747Z 30008G16KT 13SM SKC 12/M06 A3029
Pressure 30.29 in
Visibility 13.0 miles
Clouds Clear
Dew Point 7 °F
Humidity 12%
Rainfall 0.00 in
Snow Depth Not available.
7:16 AM 6:06 PM
New Moon, 2% visible
METAR KADS 091747Z 30008G16KT 13SM SKC 12/M06 A3029

10-Day Weather Forecast

Almanac

Astronomy

Feb. 09, 2016 Rise Set
Actual Time
Civil Twilight
Nautical Twilight
Astronomical Twilight
Moon
Length of Visible Light
Length of Day
Tomorrow will be .
, % of the Moon is Illuminated

Today's Extremes

State Highs State Lows

Community

WunderPhotos

Upload Photos

1,891,660 photos uploaded!

WunderBlog® & News

Nearby

Air Quality

  Air Quality AQ Index Pollutant
Not available.

Snow Depth

Station Depth Elevation

Earthquake Activity

City Distance Mag. Time & Date
Minimum magnitude displayed is 2.5.

Coastal Water Temperatures

Place Temperature

Stations

Nearby Weather Stations

Station Location Temp. Windchill Dew Point Humidity Wind Precip. Elev Updated Type
                   

Watches & Warnings

Flood Warning
Issued: 9:56 AM CST Feb. 9, 2016 – National Weather Service

The Flood Warning continues for
the Elm Fork Trinity River near Carrollton.
* At 0915 am Tuesday the stage was 8.37 feet.
* Flood stage is 8 feet.
* Minor flooding is occurring and minor flooding is forecast.
* Forecast... the river will continue to hold steady near 8.37 feet
through late week.
* At 8 feet, minor flooding will occur downstream from the gauge.


Lat... Lon 3300 9700 3287 9699 3287 9687 3300 9688